createdAt,value
2017-04-28T15:18:41.729Z,22.74
2017-04-28T15:21:05.629Z,23.78
2017-04-28T15:23:29.508Z,25.01
2017-04-28T15:25:44.960Z,24.55
2017-04-28T15:28:08.865Z,24.65
2017-04-28T15:30:32.747Z,23.5
2017-04-28T15:32:56.619Z,23.5
2017-04-28T15:35:20.396Z,24.16
2017-04-28T15:37:44.174Z,24.91
2017-04-28T15:40:07.968Z,24.23
2017-04-28T15:42:31.721Z,25.3
2017-04-28T15:44:55.457Z,24.63
2017-04-28T15:46:56.719Z,24.63
2017-04-28T15:49:20.516Z,24.45
2017-04-28T15:51:44.292Z,25.21
2017-04-28T15:54:08.166Z,23.78
2017-04-28T15:56:31.936Z,23.57
2017-04-28T15:58:55.811Z,23
2017-04-28T16:01:05.586Z,23.28
2017-04-28T16:03:21.006Z,22.91
2017-04-28T16:05:44.820Z,23.27
2017-04-28T16:07:46.085Z,23.85
2017-04-28T16:10:09.835Z,24.41
2017-04-28T16:12:25.118Z,25.18
2017-04-28T16:14:48.895Z,24.41
2017-04-28T16:17:04.158Z,24.41
2017-04-28T16:19:27.947Z,24.89
2017-04-28T16:21:51.640Z,25.27
2017-04-28T16:24:15.276Z,25.37
2017-04-28T16:26:31.579Z,24.99
2017-04-28T16:28:55.241Z,25.09
2017-04-28T16:31:18.933Z,24.9
2017-04-28T16:33:42.597Z,25
2017-04-28T16:36:06.375Z,25.38
2017-04-28T16:38:30.142Z,25.1
2017-04-28T16:40:53.913Z,24.71
2017-04-28T16:43:03.688Z,25.09
2017-04-28T16:45:27.443Z,25.18
2017-04-28T16:47:51.109Z,25.67
2017-04-28T16:50:14.899Z,26.43
2017-04-28T16:52:38.561Z,25.77
2017-04-28T16:54:53.834Z,25.77
2017-04-28T16:57:09.110Z,25.96
2017-04-28T16:59:18.871Z,26.43
2017-04-28T17:01:20.079Z,26.06
2017-04-28T17:03:43.871Z,25.67
2017-04-28T17:05:54.131Z,25.96
2017-04-28T17:08:17.926Z,27.09
2017-04-28T17:10:34.212Z,27.28
2017-04-28T17:12:57.976Z,27.56
2017-04-28T17:15:21.750Z,27.66
2017-04-28T17:17:31.488Z,28.13
2017-04-28T17:19:47.800Z,28.13
2017-04-28T17:21:56.737Z,28.13
2017-04-28T17:24:22.454Z,28.88
2017-04-28T17:26:47.138Z,30.11
2017-04-28T17:29:12.863Z,30.78
2017-04-28T17:31:28.047Z,30.98
2017-04-28T17:35:27.429Z,31.26
2017-04-28T17:37:42.627Z,32.03
2017-04-28T17:40:07.187Z,33.44
2017-04-28T17:42:22.330Z,33.64
2017-04-28T17:44:32.037Z,33.54
2017-04-28T17:46:55.624Z,33.35
2017-04-28T17:49:11.771Z,34.03
2017-04-28T17:51:27.886Z,34.2
2017-04-28T17:53:51.386Z,34.59
2017-04-28T17:56:14.928Z,35.16
2017-04-28T17:58:30.146Z,37.26
2017-04-28T18:00:54.522Z,37.36
2017-04-28T18:03:18.150Z,37.84
2017-04-28T18:05:43.584Z,36.88
2017-04-28T18:08:07.852Z,38.7
2017-04-28T18:10:31.335Z,38.51
2017-04-28T18:12:54.916Z,37.85
2017-04-28T18:15:05.133Z,37.84
2017-04-28T18:17:29.742Z,38.89
2017-04-28T18:19:53.311Z,38.87
2017-04-28T18:22:16.888Z,38.98
2017-04-28T18:24:18.118Z,38.51
2017-04-28T18:26:41.692Z,39.44
2017-04-28T18:29:05.164Z,39.37
2017-04-28T18:31:28.744Z,39.37
2017-04-28T18:33:44.941Z,41.66
2017-04-28T18:36:08.509Z,41.66
2017-04-28T18:38:32.153Z,41.49
2017-04-28T18:40:55.656Z,40.63
2017-04-28T18:43:19.269Z,39.96
2017-04-28T18:45:43.007Z,40.63
2017-04-28T18:48:06.581Z,40.15
2017-04-28T18:50:31.170Z,41.11
2017-04-28T18:52:46.427Z,40.82
2017-04-28T18:55:15.346Z,39.86
2017-04-28T18:57:45.435Z,39.48
2017-04-28T19:00:14.688Z,39.84
2017-04-28T19:02:38.347Z,39.84
2017-04-28T19:05:06.251Z,39.84
2017-04-28T19:07:39.206Z,40.03
2017-04-28T19:10:09.351Z,40.23
2017-04-28T19:12:35.546Z,40.23
2017-04-28T19:14:59.125Z,40.8
2017-04-28T19:17:25.058Z,40.89
2017-04-28T19:19:48.632Z,41.64
2017-04-28T19:22:18.740Z,41.83
2017-04-28T19:24:44.234Z,45.46
2017-04-28T19:27:07.744Z,43.09
2017-04-28T19:29:33.335Z,42.24
2017-04-28T19:31:56.897Z,41.85
2017-04-28T19:34:20.487Z,41.47
2017-04-28T19:36:44.051Z,41.75
2017-04-28T19:39:07.513Z,41.64
2017-04-28T19:41:31.086Z,41.56
2017-04-28T19:43:46.261Z,41.83
2017-04-28T19:45:55.987Z,42.31
2017-04-28T19:48:02.778Z,41.74
2017-04-28T19:50:34.851Z,42.02
2017-04-28T19:52:58.415Z,41.93
2017-04-28T19:55:21.877Z,42.67
2017-04-28T19:57:45.356Z,43.91
2017-04-28T20:00:09.860Z,44.01
2017-04-28T20:02:33.430Z,44.58
2017-04-28T20:04:56.888Z,44.87
2017-04-28T20:08:57.187Z,45.25
2017-04-28T20:11:20.691Z,45.25
2017-04-28T20:13:44.149Z,45.7
2017-04-28T20:16:07.713Z,45.7
2017-04-28T20:18:31.185Z,45.53
2017-04-28T20:20:54.663Z,49.16
2017-04-28T20:23:19.153Z,46.48
2017-04-28T20:26:00.840Z,47.34
2017-04-28T20:28:31.060Z,44.38
2017-04-28T20:32:31.290Z,45.42
2017-04-28T20:36:45.345Z,45.99
